sensor_id;sensor_type;location;lat;lon;timestamp;P1;durP1;ratioP1;P2;durP2;ratioP2
11711;SDS011;5912;51.034;6.984;2022-10-18T00:02:02;4.50;;;2.53;;
11711;SDS011;5912;51.034;6.984;2022-10-18T00:04:27;5.20;;;2.25;;
11711;SDS011;5912;51.034;6.984;2022-10-18T00:06:52;4.75;;;2.58;;
11711;SDS011;5912;51.034;6.984;2022-10-18T00:09:17;2.33;;;2.13;;
11711;SDS011;5912;51.034;6.984;2022-10-18T00:11:43;5.60;;;2.90;;
11711;SDS011;5912;51.034;6.984;2022-10-18T00:14:08;2.78;;;2.42;;
11711;SDS011;5912;51.034;6.984;2022-10-18T00:16:33;3.70;;;2.40;;
11711;SDS011;5912;51.034;6.984;2022-10-18T00:18:59;2.35;;;1.75;;
11711;SDS011;5912;51.034;6.984;2022-10-18T00:21:24;3.20;;;2.30;;
11711;SDS011;5912;51.034;6.984;2022-10-18T00:23:50;3.00;;;2.35;;
11711;SDS011;5912;51.034;6.984;2022-10-18T00:26:17;2.97;;;2.67;;
11711;SDS011;5912;51.034;6.984;2022-10-18T00:28:59;3.63;;;2.40;;
11711;SDS011;5912;51.034;6.984;2022-10-18T00:31:28;2.33;;;1.90;;
11711;SDS011;5912;51.034;6.984;2022-10-18T00:33:59;2.47;;;2.20;;
11711;SDS011;5912;51.034;6.984;2022-10-18T00:36:27;2.38;;;2.15;;
11711;SDS011;5912;51.034;6.984;2022-10-18T00:38:54;2.80;;;2.30;;
11711;SDS011;5912;51.034;6.984;2022-10-18T00:41:20;4.45;;;2.55;;
11711;SDS011;5912;51.034;6.984;2022-10-18T00:43:51;5.80;;;3.85;;
11711;SDS011;5912;51.034;6.984;2022-10-18T00:46:22;5.90;;;3.83;;
11711;SDS011;5912;51.034;6.984;2022-10-18T00:48:47;6.28;;;4.03;;
11711;SDS011;5912;51.034;6.984;2022-10-18T00:51:15;4.07;;;3.67;;
11711;SDS011;5912;51.034;6.984;2022-10-18T00:53:42;5.53;;;3.22;;
11711;SDS011;5912;51.034;6.984;2022-10-18T00:56:08;4.50;;;3.22;;
11711;SDS011;5912;51.034;6.984;2022-10-18T00:58:33;5.10;;;3.13;;
11711;SDS011;5912;51.034;6.984;2022-10-18T01:00:59;3.25;;;2.75;;
11711;SDS011;5912;51.034;6.984;2022-10-18T01:03:24;3.15;;;2.85;;
11711;SDS011;5912;51.034;6.984;2022-10-18T01:05:50;3.33;;;2.75;;
11711;SDS011;5912;51.034;6.984;2022-10-18T01:13:44;5.30;;;3.20;;
11711;SDS011;5912;51.034;6.984;2022-10-18T01:16:28;3.05;;;2.67;;
11711;SDS011;5912;51.034;6.984;2022-10-18T01:24:44;4.65;;;3.90;;
11711;SDS011;5912;51.034;6.984;2022-10-18T01:30:05;4.80;;;3.90;;
11711;SDS011;5912;51.034;6.984;2022-10-18T01:32:44;3.17;;;2.72;;
11711;SDS011;5912;51.034;6.984;2022-10-18T01:35:14;3.13;;;2.83;;
11711;SDS011;5912;51.034;6.984;2022-10-18T01:37:44;6.88;;;3.65;;
11711;SDS011;5912;51.034;6.984;2022-10-18T01:40:12;5.15;;;3.33;;
11711;SDS011;5912;51.034;6.984;2022-10-18T01:42:42;4.47;;;3.65;;
11711;SDS011;5912;51.034;6.984;2022-10-18T01:45:10;4.63;;;3.30;;
11711;SDS011;5912;51.034;6.984;2022-10-18T01:47:37;3.85;;;3.22;;
11711;SDS011;5912;51.034;6.984;2022-10-18T01:50:04;5.68;;;3.35;;
11711;SDS011;5912;51.034;6.984;2022-10-18T01:52:30;3.38;;;3.08;;
11711;SDS011;5912;51.034;6.984;2022-10-18T01:54:56;4.93;;;3.90;;
11711;SDS011;5912;51.034;6.984;2022-10-18T02:00:13;4.55;;;3.40;;
11711;SDS011;5912;51.034;6.984;2022-10-18T02:07:57;5.88;;;3.88;;
11711;SDS011;5912;51.034;6.984;2022-10-18T02:10:31;4.07;;;3.33;;
11711;SDS011;5912;51.034;6.984;2022-10-18T02:13:08;5.45;;;3.42;;
11711;SDS011;5912;51.034;6.984;2022-10-18T02:15:37;3.42;;;3.13;;
11711;SDS011;5912;51.034;6.984;2022-10-18T02:18:05;4.57;;;3.10;;
11711;SDS011;5912;51.034;6.984;2022-10-18T02:20:35;3.45;;;3.15;;
11711;SDS011;5912;51.034;6.984;2022-10-18T02:23:02;4.10;;;3.17;;
11711;SDS011;5912;51.034;6.984;2022-10-18T02:25:30;4.00;;;3.60;;
11711;SDS011;5912;51.034;6.984;2022-10-18T02:27:58;3.92;;;3.22;;
11711;SDS011;5912;51.034;6.984;2022-10-18T02:30:30;4.25;;;3.35;;
11711;SDS011;5912;51.034;6.984;2022-10-18T02:33:03;5.82;;;3.78;;
11711;SDS011;5912;51.034;6.984;2022-10-18T02:35:36;4.28;;;3.78;;
11711;SDS011;5912;51.034;6.984;2022-10-18T02:38:04;4.32;;;3.83;;
11711;SDS011;5912;51.034;6.984;2022-10-18T02:40:33;3.97;;;3.30;;
11711;SDS011;5912;51.034;6.984;2022-10-18T02:42:58;4.05;;;3.40;;
11711;SDS011;5912;51.034;6.984;2022-10-18T02:45:24;4.57;;;3.47;;
11711;SDS011;5912;51.034;6.984;2022-10-18T02:47:50;4.07;;;3.55;;
11711;SDS011;5912;51.034;6.984;2022-10-18T02:50:16;4.72;;;3.42;;
11711;SDS011;5912;51.034;6.984;2022-10-18T02:52:42;3.67;;;3.10;;
11711;SDS011;5912;51.034;6.984;2022-10-18T02:55:08;3.30;;;2.92;;
11711;SDS011;5912;51.034;6.984;2022-10-18T02:57:34;3.17;;;2.75;;
11711;SDS011;5912;51.034;6.984;2022-10-18T02:59:59;2.75;;;2.55;;
11711;SDS011;5912;51.034;6.984;2022-10-18T03:02:24;3.25;;;2.95;;
11711;SDS011;5912;51.034;6.984;2022-10-18T03:04:50;2.92;;;2.63;;
11711;SDS011;5912;51.034;6.984;2022-10-18T03:07:15;3.17;;;2.85;;
11711;SDS011;5912;51.034;6.984;2022-10-18T03:09:40;4.30;;;3.10;;
11711;SDS011;5912;51.034;6.984;2022-10-18T03:12:06;3.55;;;2.92;;
11711;SDS011;5912;51.034;6.984;2022-10-18T03:14:31;3.40;;;3.10;;
11711;SDS011;5912;51.034;6.984;2022-10-18T03:16:56;4.35;;;3.47;;
11711;SDS011;5912;51.034;6.984;2022-10-18T03:19:22;4.38;;;3.42;;
11711;SDS011;5912;51.034;6.984;2022-10-18T03:21:47;4.15;;;3.38;;
11711;SDS011;5912;51.034;6.984;2022-10-18T03:24:12;4.00;;;3.30;;
11711;SDS011;5912;51.034;6.984;2022-10-18T03:26:38;3.30;;;2.80;;
11711;SDS011;5912;51.034;6.984;2022-10-18T03:29:04;3.70;;;3.30;;
11711;SDS011;5912;51.034;6.984;2022-10-18T03:31:29;3.70;;;3.30;;
11711;SDS011;5912;51.034;6.984;2022-10-18T03:33:55;3.70;;;3.28;;
11711;SDS011;5912;51.034;6.984;2022-10-18T03:36:20;4.32;;;3.25;;
11711;SDS011;5912;51.034;6.984;2022-10-18T03:38:45;4.75;;;3.55;;
11711;SDS011;5912;51.034;6.984;2022-10-18T03:41:10;3.85;;;3.40;;
11711;SDS011;5912;51.034;6.984;2022-10-18T03:43:36;4.78;;;3.05;;
11711;SDS011;5912;51.034;6.984;2022-10-18T03:46:01;4.57;;;3.78;;
11711;SDS011;5912;51.034;6.984;2022-10-18T03:48:27;3.92;;;3.38;;
11711;SDS011;5912;51.034;6.984;2022-10-18T03:50:52;7.00;;;4.00;;
11711;SDS011;5912;51.034;6.984;2022-10-18T03:53:17;5.32;;;3.53;;
11711;SDS011;5912;51.034;6.984;2022-10-18T03:55:43;3.97;;;3.53;;
11711;SDS011;5912;51.034;6.984;2022-10-18T03:58:08;3.47;;;3.08;;
11711;SDS011;5912;51.034;6.984;2022-10-18T04:00:35;3.65;;;3.10;;
11711;SDS011;5912;51.034;6.984;2022-10-18T04:03:00;4.13;;;3.72;;
11711;SDS011;5912;51.034;6.984;2022-10-18T04:05:26;4.03;;;3.22;;
11711;SDS011;5912;51.034;6.984;2022-10-18T04:07:54;4.05;;;3.35;;
11711;SDS011;5912;51.034;6.984;2022-10-18T04:10:20;4.80;;;3.63;;
11711;SDS011;5912;51.034;6.984;2022-10-18T04:12:45;6.13;;;3.80;;
11711;SDS011;5912;51.034;6.984;2022-10-18T04:15:10;5.03;;;3.80;;
11711;SDS011;5912;51.034;6.984;2022-10-18T04:17:36;4.65;;;3.80;;
11711;SDS011;5912;51.034;6.984;2022-10-18T04:20:01;3.25;;;2.83;;
11711;SDS011;5912;51.034;6.984;2022-10-18T04:22:26;5.10;;;3.40;;
11711;SDS011;5912;51.034;6.984;2022-10-18T04:24:52;2.90;;;2.70;;
11711;SDS011;5912;51.034;6.984;2022-10-18T04:27:17;4.28;;;3.20;;
11711;SDS011;5912;51.034;6.984;2022-10-18T04:29:43;4.15;;;3.45;;
11711;SDS011;5912;51.034;6.984;2022-10-18T04:32:08;4.47;;;3.60;;
11711;SDS011;5912;51.034;6.984;2022-10-18T04:34:34;3.88;;;2.72;;
11711;SDS011;5912;51.034;6.984;2022-10-18T04:36:59;3.67;;;3.10;;
11711;SDS011;5912;51.034;6.984;2022-10-18T04:39:24;3.92;;;3.10;;
11711;SDS011;5912;51.034;6.984;2022-10-18T04:41:50;4.18;;;3.33;;
11711;SDS011;5912;51.034;6.984;2022-10-18T04:44:15;3.47;;;2.95;;
11711;SDS011;5912;51.034;6.984;2022-10-18T04:46:40;3.35;;;2.72;;
11711;SDS011;5912;51.034;6.984;2022-10-18T04:49:06;3.88;;;2.90;;
11711;SDS011;5912;51.034;6.984;2022-10-18T04:51:31;3.67;;;2.95;;
11711;SDS011;5912;51.034;6.984;2022-10-18T04:53:56;3.30;;;3.00;;
11711;SDS011;5912;51.034;6.984;2022-10-18T04:56:21;3.63;;;3.10;;
11711;SDS011;5912;51.034;6.984;2022-10-18T04:58:47;4.47;;;2.97;;
11711;SDS011;5912;51.034;6.984;2022-10-18T05:01:12;3.90;;;3.30;;
11711;SDS011;5912;51.034;6.984;2022-10-18T05:03:38;4.65;;;3.30;;
11711;SDS011;5912;51.034;6.984;2022-10-18T05:06:03;4.20;;;3.20;;
11711;SDS011;5912;51.034;6.984;2022-10-18T05:08:33;5.40;;;3.40;;
11711;SDS011;5912;51.034;6.984;2022-10-18T05:11:02;3.20;;;2.80;;
11711;SDS011;5912;51.034;6.984;2022-10-18T05:13:28;3.63;;;2.97;;
11711;SDS011;5912;51.034;6.984;2022-10-18T05:15:54;3.40;;;2.83;;
11711;SDS011;5912;51.034;6.984;2022-10-18T05:18:19;4.28;;;3.00;;
11711;SDS011;5912;51.034;6.984;2022-10-18T05:20:45;3.75;;;3.20;;
11711;SDS011;5912;51.034;6.984;2022-10-18T05:23:11;4.35;;;3.00;;
11711;SDS011;5912;51.034;6.984;2022-10-18T05:25:39;3.55;;;2.95;;
11711;SDS011;5912;51.034;6.984;2022-10-18T05:28:06;3.50;;;3.20;;
11711;SDS011;5912;51.034;6.984;2022-10-18T05:30:32;4.05;;;3.33;;
11711;SDS011;5912;51.034;6.984;2022-10-18T05:32:58;3.70;;;3.30;;
11711;SDS011;5912;51.034;6.984;2022-10-18T05:35:23;3.45;;;3.13;;
11711;SDS011;5912;51.034;6.984;2022-10-18T05:37:49;4.97;;;3.75;;
11711;SDS011;5912;51.034;6.984;2022-10-18T05:40:14;4.50;;;3.67;;
11711;SDS011;5912;51.034;6.984;2022-10-18T05:42:39;5.93;;;4.20;;
11711;SDS011;5912;51.034;6.984;2022-10-18T05:45:05;5.20;;;4.05;;
11711;SDS011;5912;51.034;6.984;2022-10-18T05:47:30;4.60;;;3.88;;
11711;SDS011;5912;51.034;6.984;2022-10-18T05:49:56;6.03;;;4.50;;
11711;SDS011;5912;51.034;6.984;2022-10-18T05:52:21;4.32;;;3.67;;
11711;SDS011;5912;51.034;6.984;2022-10-18T05:54:46;5.60;;;3.90;;
11711;SDS011;5912;51.034;6.984;2022-10-18T05:57:12;4.20;;;3.55;;
11711;SDS011;5912;51.034;6.984;2022-10-18T05:59:37;6.25;;;3.90;;
11711;SDS011;5912;51.034;6.984;2022-10-18T06:02:02;5.35;;;4.10;;
11711;SDS011;5912;51.034;6.984;2022-10-18T06:04:28;5.68;;;4.03;;
11711;SDS011;5912;51.034;6.984;2022-10-18T06:06:53;4.60;;;3.63;;
11711;SDS011;5912;51.034;6.984;2022-10-18T06:09:20;4.63;;;4.13;;
11711;SDS011;5912;51.034;6.984;2022-10-18T06:11:45;4.65;;;3.70;;
11711;SDS011;5912;51.034;6.984;2022-10-18T06:14:10;4.38;;;3.60;;
11711;SDS011;5912;51.034;6.984;2022-10-18T06:16:36;4.85;;;3.63;;
11711;SDS011;5912;51.034;6.984;2022-10-18T06:19:01;5.20;;;4.18;;
11711;SDS011;5912;51.034;6.984;2022-10-18T06:21:26;4.45;;;3.50;;
11711;SDS011;5912;51.034;6.984;2022-10-18T06:23:53;4.38;;;3.50;;
11711;SDS011;5912;51.034;6.984;2022-10-18T06:26:19;4.70;;;3.80;;
11711;SDS011;5912;51.034;6.984;2022-10-18T06:28:45;3.72;;;2.67;;
11711;SDS011;5912;51.034;6.984;2022-10-18T06:31:11;4.15;;;3.17;;
11711;SDS011;5912;51.034;6.984;2022-10-18T06:33:37;4.28;;;3.17;;
11711;SDS011;5912;51.034;6.984;2022-10-18T06:36:04;4.78;;;3.80;;
11711;SDS011;5912;51.034;6.984;2022-10-18T06:38:31;4.10;;;3.70;;
11711;SDS011;5912;51.034;6.984;2022-10-18T06:40:57;5.20;;;3.85;;
11711;SDS011;5912;51.034;6.984;2022-10-18T06:43:24;5.30;;;3.90;;
11711;SDS011;5912;51.034;6.984;2022-10-18T06:45:49;5.65;;;4.05;;
11711;SDS011;5912;51.034;6.984;2022-10-18T06:48:16;5.82;;;4.30;;
11711;SDS011;5912;51.034;6.984;2022-10-18T06:50:42;7.30;;;4.43;;
11711;SDS011;5912;51.034;6.984;2022-10-18T06:53:15;6.20;;;4.40;;
11711;SDS011;5912;51.034;6.984;2022-10-18T06:55:40;4.32;;;3.92;;
11711;SDS011;5912;51.034;6.984;2022-10-18T06:58:06;5.43;;;3.85;;
11711;SDS011;5912;51.034;6.984;2022-10-18T07:00:31;4.28;;;3.72;;
11711;SDS011;5912;51.034;6.984;2022-10-18T07:02:56;4.82;;;3.22;;
11711;SDS011;5912;51.034;6.984;2022-10-18T07:05:22;6.47;;;3.67;;
11711;SDS011;5912;51.034;6.984;2022-10-18T07:07:47;4.30;;;3.63;;
11711;SDS011;5912;51.034;6.984;2022-10-18T07:10:13;5.10;;;3.60;;
11711;SDS011;5912;51.034;6.984;2022-10-18T07:12:38;5.82;;;4.28;;
11711;SDS011;5912;51.034;6.984;2022-10-18T07:15:04;4.28;;;3.42;;
11711;SDS011;5912;51.034;6.984;2022-10-18T07:17:29;5.30;;;3.78;;
11711;SDS011;5912;51.034;6.984;2022-10-18T07:19:55;4.20;;;3.35;;
11711;SDS011;5912;51.034;6.984;2022-10-18T07:22:20;4.70;;;3.85;;
11711;SDS011;5912;51.034;6.984;2022-10-18T07:24:45;5.97;;;3.78;;
11711;SDS011;5912;51.034;6.984;2022-10-18T07:27:11;5.13;;;4.00;;
11711;SDS011;5912;51.034;6.984;2022-10-18T07:29:36;4.20;;;3.58;;
11711;SDS011;5912;51.034;6.984;2022-10-18T07:32:03;3.38;;;3.08;;
11711;SDS011;5912;51.034;6.984;2022-10-18T07:34:28;3.88;;;3.42;;
11711;SDS011;5912;51.034;6.984;2022-10-18T07:36:53;4.80;;;3.88;;
11711;SDS011;5912;51.034;6.984;2022-10-18T07:39:19;4.07;;;3.47;;
11711;SDS011;5912;51.034;6.984;2022-10-18T07:41:44;3.92;;;3.10;;
11711;SDS011;5912;51.034;6.984;2022-10-18T07:44:10;4.07;;;3.35;;
11711;SDS011;5912;51.034;6.984;2022-10-18T07:46:35;4.13;;;3.47;;
11711;SDS011;5912;51.034;6.984;2022-10-18T07:49:01;5.70;;;3.80;;
11711;SDS011;5912;51.034;6.984;2022-10-18T07:51:26;5.57;;;3.33;;
11711;SDS011;5912;51.034;6.984;2022-10-18T07:53:52;4.68;;;3.70;;
11711;SDS011;5912;51.034;6.984;2022-10-18T07:56:18;3.65;;;3.08;;
11711;SDS011;5912;51.034;6.984;2022-10-18T07:58:46;3.97;;;3.03;;
11711;SDS011;5912;51.034;6.984;2022-10-18T08:01:13;4.78;;;4.00;;
11711;SDS011;5912;51.034;6.984;2022-10-18T08:03:39;3.90;;;3.10;;
11711;SDS011;5912;51.034;6.984;2022-10-18T08:06:06;5.80;;;4.00;;
11711;SDS011;5912;51.034;6.984;2022-10-18T08:08:34;6.13;;;4.00;;
11711;SDS011;5912;51.034;6.984;2022-10-18T08:11:04;4.10;;;3.42;;
11711;SDS011;5912;51.034;6.984;2022-10-18T08:13:31;5.15;;;4.57;;
11711;SDS011;5912;51.034;6.984;2022-10-18T08:15:58;5.70;;;3.63;;
11711;SDS011;5912;51.034;6.984;2022-10-18T08:18:24;4.15;;;3.72;;
11711;SDS011;5912;51.034;6.984;2022-10-18T08:20:50;5.35;;;3.70;;
11711;SDS011;5912;51.034;6.984;2022-10-18T08:23:15;4.47;;;3.83;;
11711;SDS011;5912;51.034;6.984;2022-10-18T08:25:40;6.93;;;4.20;;
11711;SDS011;5912;51.034;6.984;2022-10-18T08:28:06;5.85;;;4.07;;
11711;SDS011;5912;51.034;6.984;2022-10-18T08:30:32;5.68;;;3.88;;
11711;SDS011;5912;51.034;6.984;2022-10-18T08:32:58;6.00;;;4.40;;
11711;SDS011;5912;51.034;6.984;2022-10-18T08:35:24;6.72;;;4.15;;
11711;SDS011;5912;51.034;6.984;2022-10-18T08:37:49;6.88;;;4.57;;
11711;SDS011;5912;51.034;6.984;2022-10-18T08:40:15;6.45;;;4.55;;
11711;SDS011;5912;51.034;6.984;2022-10-18T08:45:32;5.68;;;4.43;;
11711;SDS011;5912;51.034;6.984;2022-10-18T08:48:00;9.10;;;5.40;;
11711;SDS011;5912;51.034;6.984;2022-10-18T08:50:30;12.25;;;7.18;;
11711;SDS011;5912;51.034;6.984;2022-10-18T08:55:51;10.40;;;7.25;;
11711;SDS011;5912;51.034;6.984;2022-10-18T08:58:25;14.80;;;8.07;;
11711;SDS011;5912;51.034;6.984;2022-10-18T09:06:33;17.70;;;9.23;;
11711;SDS011;5912;51.034;6.984;2022-10-18T09:12:11;21.33;;;10.07;;
11711;SDS011;5912;51.034;6.984;2022-10-18T09:15:03;21.63;;;10.07;;
11711;SDS011;5912;51.034;6.984;2022-10-18T09:18:15;21.20;;;10.23;;
11711;SDS011;5912;51.034;6.984;2022-10-18T09:20:24;23.20;;;10.65;;
11711;SDS011;5912;51.034;6.984;2022-10-18T09:23:04;23.85;;;11.30;;
11711;SDS011;5912;51.034;6.984;2022-10-18T09:25:39;26.50;;;12.68;;
11711;SDS011;5912;51.034;6.984;2022-10-18T09:34:07;32.05;;;13.85;;
11711;SDS011;5912;51.034;6.984;2022-10-18T09:36:41;27.67;;;11.45;;
11711;SDS011;5912;51.034;6.984;2022-10-18T09:39:15;30.00;;;12.30;;
11711;SDS011;5912;51.034;6.984;2022-10-18T09:44:57;27.55;;;12.32;;
11711;SDS011;5912;51.034;6.984;2022-10-18T09:47:33;31.20;;;12.73;;
11711;SDS011;5912;51.034;6.984;2022-10-18T09:50:19;29.33;;;12.82;;
11711;SDS011;5912;51.034;6.984;2022-10-18T09:52:51;25.35;;;11.50;;
11711;SDS011;5912;51.034;6.984;2022-10-18T09:55:22;29.77;;;13.48;;
11711;SDS011;5912;51.034;6.984;2022-10-18T09:57:53;25.00;;;11.73;;
11711;SDS011;5912;51.034;6.984;2022-10-18T10:00:25;26.85;;;11.45;;
11711;SDS011;5912;51.034;6.984;2022-10-18T10:02:56;29.48;;;13.98;;
11711;SDS011;5912;51.034;6.984;2022-10-18T10:05:22;26.05;;;13.07;;
11711;SDS011;5912;51.034;6.984;2022-10-18T10:07:48;29.40;;;14.15;;
11711;SDS011;5912;51.034;6.984;2022-10-18T10:10:23;30.95;;;13.63;;
11711;SDS011;5912;51.034;6.984;2022-10-18T10:15:59;26.92;;;12.60;;
11711;SDS011;5912;51.034;6.984;2022-10-18T10:18:26;25.95;;;11.75;;
11711;SDS011;5912;51.034;6.984;2022-10-18T10:20:56;32.10;;;14.05;;
11711;SDS011;5912;51.034;6.984;2022-10-18T10:23:28;30.45;;;13.13;;
11711;SDS011;5912;51.034;6.984;2022-10-18T10:25:58;28.55;;;12.95;;
11711;SDS011;5912;51.034;6.984;2022-10-18T10:28:29;24.77;;;13.60;;
11711;SDS011;5912;51.034;6.984;2022-10-18T10:31:30;25.70;;;13.40;;
11711;SDS011;5912;51.034;6.984;2022-10-18T10:33:59;30.15;;;14.77;;
11711;SDS011;5912;51.034;6.984;2022-10-18T10:36:29;20.60;;;12.20;;
11711;SDS011;5912;51.034;6.984;2022-10-18T10:41:40;22.13;;;12.15;;
11711;SDS011;5912;51.034;6.984;2022-10-18T10:44:12;21.73;;;13.63;;
11711;SDS011;5912;51.034;6.984;2022-10-18T10:46:40;22.30;;;11.82;;
11711;SDS011;5912;51.034;6.984;2022-10-18T10:49:12;19.83;;;12.15;;
11711;SDS011;5912;51.034;6.984;2022-10-18T10:51:44;17.52;;;11.07;;
11711;SDS011;5912;51.034;6.984;2022-10-18T10:54:18;17.40;;;11.60;;
11711;SDS011;5912;51.034;6.984;2022-10-18T10:57:04;17.10;;;11.05;;
11711;SDS011;5912;51.034;6.984;2022-10-18T10:59:43;16.65;;;10.40;;
11711;SDS011;5912;51.034;6.984;2022-10-18T11:02:17;19.70;;;12.90;;
11711;SDS011;5912;51.034;6.984;2022-10-18T11:04:46;18.48;;;11.82;;
11711;SDS011;5912;51.034;6.984;2022-10-18T11:09:49;15.25;;;10.15;;
11711;SDS011;5912;51.034;6.984;2022-10-18T11:12:27;16.75;;;11.07;;
11711;SDS011;5912;51.034;6.984;2022-10-18T11:20:28;21.52;;;13.73;;
11711;SDS011;5912;51.034;6.984;2022-10-18T11:23:00;20.65;;;13.18;;
11711;SDS011;5912;51.034;6.984;2022-10-18T11:25:42;20.40;;;14.15;;
11711;SDS011;5912;51.034;6.984;2022-10-18T11:36:17;15.38;;;12.13;;
11711;SDS011;5912;51.034;6.984;2022-10-18T11:47:35;20.55;;;14.68;;
11711;SDS011;5912;51.034;6.984;2022-10-18T11:53:40;20.80;;;14.48;;
11711;SDS011;5912;51.034;6.984;2022-10-18T11:56:29;21.30;;;14.85;;
11711;SDS011;5912;51.034;6.984;2022-10-18T11:59:36;21.10;;;16.17;;
11711;SDS011;5912;51.034;6.984;2022-10-18T12:04:58;25.40;;;17.42;;
11711;SDS011;5912;51.034;6.984;2022-10-18T12:10:20;24.42;;;18.13;;
11711;SDS011;5912;51.034;6.984;2022-10-18T12:12:54;24.42;;;17.15;;
11711;SDS011;5912;51.034;6.984;2022-10-18T12:15:25;23.48;;;17.20;;
11711;SDS011;5912;51.034;6.984;2022-10-18T12:17:53;24.75;;;17.45;;
11711;SDS011;5912;51.034;6.984;2022-10-18T12:20:24;23.50;;;17.35;;
11711;SDS011;5912;51.034;6.984;2022-10-18T12:25:28;28.45;;;20.80;;
11711;SDS011;5912;51.034;6.984;2022-10-18T12:33:40;44.03;;;27.27;;
11711;SDS011;5912;51.034;6.984;2022-10-18T12:38:47;41.50;;;25.67;;
11711;SDS011;5912;51.034;6.984;2022-10-18T12:41:20;43.47;;;26.27;;
11711;SDS011;5912;51.034;6.984;2022-10-18T12:43:50;46.78;;;27.40;;
11711;SDS011;5912;51.034;6.984;2022-10-18T12:46:23;42.22;;;25.23;;
11711;SDS011;5912;51.034;6.984;2022-10-18T12:49:02;41.80;;;24.83;;
11711;SDS011;5912;51.034;6.984;2022-10-18T12:51:29;44.20;;;24.40;;
11711;SDS011;5912;51.034;6.984;2022-10-18T12:58:52;40.65;;;22.83;;
11711;SDS011;5912;51.034;6.984;2022-10-18T13:13:01;37.42;;;20.63;;
11711;SDS011;5912;51.034;6.984;2022-10-18T13:15:58;30.00;;;17.33;;
11711;SDS011;5912;51.034;6.984;2022-10-18T13:27:37;20.30;;;13.57;;
11711;SDS011;5912;51.034;6.984;2022-10-18T14:06:14;13.07;;;9.32;;
11711;SDS011;5912;51.034;6.984;2022-10-18T14:22:10;7.68;;;6.15;;
11711;SDS011;5912;51.034;6.984;2022-10-18T14:24:42;7.47;;;5.47;;
11711;SDS011;5912;51.034;6.984;2022-10-18T14:27:12;8.75;;;5.18;;
11711;SDS011;5912;51.034;6.984;2022-10-18T14:30:07;6.97;;;4.82;;
11711;SDS011;5912;51.034;6.984;2022-10-18T14:32:46;8.20;;;4.97;;
11711;SDS011;5912;51.034;6.984;2022-10-18T14:35:29;10.73;;;5.40;;
11711;SDS011;5912;51.034;6.984;2022-10-18T14:37:55;7.15;;;4.20;;
11711;SDS011;5912;51.034;6.984;2022-10-18T14:40:36;7.93;;;4.15;;
11711;SDS011;5912;51.034;6.984;2022-10-18T14:43:04;7.07;;;4.60;;
11711;SDS011;5912;51.034;6.984;2022-10-18T14:45:35;7.68;;;4.50;;
11711;SDS011;5912;51.034;6.984;2022-10-18T14:48:04;10.88;;;6.00;;
11711;SDS011;5912;51.034;6.984;2022-10-18T14:51:08;9.30;;;5.13;;
11711;SDS011;5912;51.034;6.984;2022-10-18T14:53:37;7.28;;;4.70;;
11711;SDS011;5912;51.034;6.984;2022-10-18T14:56:04;8.60;;;5.65;;
11711;SDS011;5912;51.034;6.984;2022-10-18T14:58:31;8.95;;;5.85;;
11711;SDS011;5912;51.034;6.984;2022-10-18T15:01:00;8.07;;;5.45;;
11711;SDS011;5912;51.034;6.984;2022-10-18T15:03:27;8.48;;;6.10;;
11711;SDS011;5912;51.034;6.984;2022-10-18T15:05:59;9.82;;;5.80;;
11711;SDS011;5912;51.034;6.984;2022-10-18T15:08:37;7.65;;;4.40;;
11711;SDS011;5912;51.034;6.984;2022-10-18T15:11:05;7.43;;;4.30;;
11711;SDS011;5912;51.034;6.984;2022-10-18T15:13:31;8.10;;;4.13;;
11711;SDS011;5912;51.034;6.984;2022-10-18T15:15:58;8.30;;;4.57;;
11711;SDS011;5912;51.034;6.984;2022-10-18T15:18:24;7.10;;;4.22;;
11711;SDS011;5912;51.034;6.984;2022-10-18T15:23:31;10.02;;;4.93;;
11711;SDS011;5912;51.034;6.984;2022-10-18T15:25:59;10.43;;;4.75;;
11711;SDS011;5912;51.034;6.984;2022-10-18T15:28:30;7.15;;;4.60;;
11711;SDS011;5912;51.034;6.984;2022-10-18T15:30:59;8.43;;;5.72;;
11711;SDS011;5912;51.034;6.984;2022-10-18T15:33:26;7.57;;;4.65;;
11711;SDS011;5912;51.034;6.984;2022-10-18T15:36:06;7.45;;;4.25;;
11711;SDS011;5912;51.034;6.984;2022-10-18T15:38:35;7.43;;;4.70;;
11711;SDS011;5912;51.034;6.984;2022-10-18T15:41:01;8.25;;;4.45;;
11711;SDS011;5912;51.034;6.984;2022-10-18T15:43:47;7.63;;;4.15;;
11711;SDS011;5912;51.034;6.984;2022-10-18T15:46:27;7.22;;;3.85;;
11711;SDS011;5912;51.034;6.984;2022-10-18T15:51:49;4.45;;;3.38;;
11711;SDS011;5912;51.034;6.984;2022-10-18T15:54:35;6.72;;;3.63;;
11711;SDS011;5912;51.034;6.984;2022-10-18T15:57:08;7.95;;;4.18;;
11711;SDS011;5912;51.034;6.984;2022-10-18T15:59:34;7.68;;;5.20;;
11711;SDS011;5912;51.034;6.984;2022-10-18T16:02:08;7.70;;;4.30;;
11711;SDS011;5912;51.034;6.984;2022-10-18T16:04:37;6.43;;;4.10;;
11711;SDS011;5912;51.034;6.984;2022-10-18T16:07:02;7.35;;;4.35;;
11711;SDS011;5912;51.034;6.984;2022-10-18T16:09:28;7.55;;;4.57;;
11711;SDS011;5912;51.034;6.984;2022-10-18T16:11:54;5.90;;;3.92;;
11711;SDS011;5912;51.034;6.984;2022-10-18T16:17:05;9.77;;;4.65;;
11711;SDS011;5912;51.034;6.984;2022-10-18T16:19:31;6.25;;;3.88;;
11711;SDS011;5912;51.034;6.984;2022-10-18T16:21:58;8.48;;;4.10;;
11711;SDS011;5912;51.034;6.984;2022-10-18T16:24:24;5.63;;;3.80;;
11711;SDS011;5912;51.034;6.984;2022-10-18T16:26:50;7.78;;;4.20;;
11711;SDS011;5912;51.034;6.984;2022-10-18T16:29:18;5.35;;;3.33;;
11711;SDS011;5912;51.034;6.984;2022-10-18T16:31:49;6.10;;;4.00;;
11711;SDS011;5912;51.034;6.984;2022-10-18T16:34:17;9.15;;;4.00;;
11711;SDS011;5912;51.034;6.984;2022-10-18T16:36:43;4.63;;;3.63;;
11711;SDS011;5912;51.034;6.984;2022-10-18T16:39:13;8.82;;;4.15;;
11711;SDS011;5912;51.034;6.984;2022-10-18T16:41:46;8.23;;;4.95;;
11711;SDS011;5912;51.034;6.984;2022-10-18T16:44:12;6.85;;;4.32;;
11711;SDS011;5912;51.034;6.984;2022-10-18T16:46:42;6.63;;;4.45;;
11711;SDS011;5912;51.034;6.984;2022-10-18T16:49:15;10.45;;;4.28;;
11711;SDS011;5912;51.034;6.984;2022-10-18T16:51:43;9.55;;;4.60;;
11711;SDS011;5912;51.034;6.984;2022-10-18T16:54:09;7.75;;;3.97;;
11711;SDS011;5912;51.034;6.984;2022-10-18T16:56:35;5.82;;;4.40;;
11711;SDS011;5912;51.034;6.984;2022-10-18T16:59:00;5.97;;;4.25;;
11711;SDS011;5912;51.034;6.984;2022-10-18T17:01:27;8.00;;;3.97;;
11711;SDS011;5912;51.034;6.984;2022-10-18T17:03:53;7.50;;;4.60;;
11711;SDS011;5912;51.034;6.984;2022-10-18T17:06:26;9.18;;;5.05;;
11711;SDS011;5912;51.034;6.984;2022-10-18T17:08:53;7.30;;;4.88;;
11711;SDS011;5912;51.034;6.984;2022-10-18T17:11:20;6.93;;;4.82;;
11711;SDS011;5912;51.034;6.984;2022-10-18T17:13:46;7.85;;;4.68;;
11711;SDS011;5912;51.034;6.984;2022-10-18T17:16:31;8.68;;;4.72;;
11711;SDS011;5912;51.034;6.984;2022-10-18T17:18:59;8.52;;;4.47;;
11711;SDS011;5912;51.034;6.984;2022-10-18T17:21:27;6.60;;;4.18;;
11711;SDS011;5912;51.034;6.984;2022-10-18T17:23:53;8.25;;;4.63;;
11711;SDS011;5912;51.034;6.984;2022-10-18T17:26:21;6.47;;;4.80;;
11711;SDS011;5912;51.034;6.984;2022-10-18T17:28:52;7.13;;;4.00;;
11711;SDS011;5912;51.034;6.984;2022-10-18T17:31:19;7.57;;;4.55;;
11711;SDS011;5912;51.034;6.984;2022-10-18T17:33:45;8.07;;;4.72;;
11711;SDS011;5912;51.034;6.984;2022-10-18T17:36:11;7.28;;;5.10;;
11711;SDS011;5912;51.034;6.984;2022-10-18T17:38:36;6.47;;;4.30;;
11711;SDS011;5912;51.034;6.984;2022-10-18T17:41:05;7.78;;;4.80;;
11711;SDS011;5912;51.034;6.984;2022-10-18T17:43:32;8.23;;;5.40;;
11711;SDS011;5912;51.034;6.984;2022-10-18T17:45:58;9.32;;;5.10;;
11711;SDS011;5912;51.034;6.984;2022-10-18T17:48:24;9.18;;;5.53;;
11711;SDS011;5912;51.034;6.984;2022-10-18T17:50:50;8.88;;;5.88;;
11711;SDS011;5912;51.034;6.984;2022-10-18T17:53:15;11.00;;;7.53;;
11711;SDS011;5912;51.034;6.984;2022-10-18T17:55:46;11.93;;;7.07;;
11711;SDS011;5912;51.034;6.984;2022-10-18T17:58:11;9.82;;;6.07;;
11711;SDS011;5912;51.034;6.984;2022-10-18T18:00:37;10.07;;;6.93;;
11711;SDS011;5912;51.034;6.984;2022-10-18T18:03:02;9.90;;;5.90;;
11711;SDS011;5912;51.034;6.984;2022-10-18T18:05:32;10.52;;;6.20;;